createdAt,value
2019-01-21T00:01:02.403Z,33.93
2019-01-21T00:03:31.783Z,33.90
2019-01-21T00:06:01.231Z,33.73
2019-01-21T00:08:30.633Z,35.13
2019-01-21T00:11:00.007Z,34.10
2019-01-21T00:13:29.433Z,34.97
2019-01-21T00:15:58.812Z,35.33
2019-01-21T00:18:28.248Z,34.93
2019-01-21T00:20:57.604Z,32.83
2019-01-21T00:23:27.026Z,33.93
2019-01-21T00:25:56.428Z,32.87
2019-01-21T00:28:26.171Z,33.70
2019-01-21T00:30:55.552Z,32.33
2019-01-21T00:33:24.933Z,34.77
2019-01-21T00:35:54.335Z,33.90
2019-01-21T00:38:23.715Z,34.20
2019-01-21T00:40:53.490Z,34.53
2019-01-21T00:43:22.847Z,33.70
2019-01-21T00:45:52.235Z,34.53
2019-01-21T00:48:21.643Z,36.07
2019-01-21T00:50:51.094Z,34.63
2019-01-21T00:53:20.503Z,34.37
2019-01-21T00:55:49.889Z,34.77
2019-01-21T00:58:19.288Z,34.40
2019-01-21T01:00:48.674Z,35.30
2019-01-21T01:03:18.084Z,34.43
2019-01-21T01:05:47.454Z,34.33
2019-01-21T01:08:16.766Z,35.57
2019-01-21T01:10:46.187Z,35.23
2019-01-21T01:13:15.571Z,35.83
2019-01-21T01:15:44.987Z,36.70
2019-01-21T01:18:14.377Z,32.00
2019-01-21T01:20:43.812Z,35.27
2019-01-21T01:23:13.639Z,34.87
2019-01-21T01:25:43.084Z,33.03
2019-01-21T01:28:12.480Z,36.33
2019-01-21T01:30:41.880Z,35.60
2019-01-21T01:33:11.271Z,35.03
2019-01-21T01:35:41.064Z,35.93
2019-01-21T01:38:10.554Z,35.90
2019-01-21T01:40:39.964Z,35.07
2019-01-21T01:43:09.525Z,36.37
2019-01-21T01:45:39.174Z,36.97
2019-01-21T01:48:08.639Z,37.53
2019-01-21T01:50:38.147Z,36.70
2019-01-21T01:53:07.707Z,37.23
2019-01-21T01:55:37.194Z,36.37
2019-01-21T01:58:07.234Z,35.50
2019-01-21T02:00:37.463Z,35.17
2019-01-21T02:03:07.061Z,37.50
2019-01-21T02:05:36.440Z,35.77
2019-01-21T02:08:06.049Z,36.40
2019-01-21T02:10:35.525Z,37.63
2019-01-21T02:13:05.426Z,38.10
2019-01-21T02:15:34.855Z,36.63
2019-01-21T02:18:04.628Z,38.17
2019-01-21T02:20:34.035Z,36.43
2019-01-21T02:23:05.228Z,37.00
2019-01-21T02:25:53.500Z,38.37
2019-01-21T02:28:50.483Z,35.90
2019-01-21T02:32:03.721Z,35.33
2019-01-21T02:35:26.100Z,35.87
2019-01-21T02:38:14.616Z,37.10
2019-01-21T02:41:05.460Z,37.43
2019-01-21T02:44:21.985Z,37.53
2019-01-21T02:47:08.763Z,38.07
2019-01-21T02:50:26.929Z,36.80
2019-01-21T02:53:21.238Z,35.87
2019-01-21T02:56:37.908Z,36.50
2019-01-21T02:59:38.639Z,36.30
2019-01-21T03:03:09.880Z,33.53
2019-01-21T03:06:26.455Z,36.87
2019-01-21T03:09:38.084Z,36.70
2019-01-21T03:12:44.060Z,34.47
2019-01-21T03:15:43.098Z,36.10
2019-01-21T03:18:55.459Z,37.17
2019-01-21T03:21:51.312Z,34.60
2019-01-21T03:24:51.978Z,35.37
2019-01-21T03:28:09.988Z,35.40
2019-01-21T03:31:35.600Z,36.67
2019-01-21T03:34:41.054Z,36.67
2019-01-21T03:37:57.196Z,37.90
2019-01-21T03:40:47.320Z,36.17
2019-01-21T03:43:43.084Z,36.23
2019-01-21T03:46:55.026Z,37.70
2019-01-21T03:50:07.556Z,33.00
2019-01-21T03:53:12.255Z,37.20
2019-01-21T03:55:41.674Z,39.43
2019-01-21T03:58:56.931Z,35.53
2019-01-21T04:02:03.465Z,36.57
2019-01-21T04:04:52.331Z,37.40
2019-01-21T04:07:45.279Z,37.77
2019-01-21T04:10:47.022Z,38.37
2019-01-21T04:13:49.484Z,37.83
2019-01-21T04:17:08.900Z,36.33
2019-01-21T04:19:49.892Z,36.83
2019-01-21T04:22:49.172Z,35.00
2019-01-21T04:25:45.339Z,37.10
2019-01-21T04:28:48.352Z,36.23
2019-01-21T04:31:53.910Z,38.53
2019-01-21T04:34:59.633Z,39.00
2019-01-21T04:38:04.057Z,39.47
2019-01-21T04:41:12.984Z,41.57
2019-01-21T04:44:08.190Z,37.57
2019-01-21T04:47:22.892Z,38.83
2019-01-21T04:50:38.369Z,38.77
2019-01-21T04:53:26.855Z,38.97
2019-01-21T04:56:39.129Z,40.43
2019-01-21T04:59:51.292Z,40.47
2019-01-21T05:03:13.443Z,40.30
2019-01-21T05:06:10.444Z,40.30
2019-01-21T05:09:26.868Z,39.53
2019-01-21T05:12:27.693Z,38.57
2019-01-21T05:15:39.675Z,39.17
2019-01-21T05:19:02.018Z,38.40
2019-01-21T05:22:18.041Z,39.57
2019-01-21T05:25:31.675Z,39.03
2019-01-21T05:28:11.920Z,39.47
2019-01-21T05:30:53.183Z,38.90
2019-01-21T05:34:12.396Z,39.73
2019-01-21T05:36:52.887Z,40.23
2019-01-21T05:40:01.301Z,38.00
2019-01-21T05:43:27.139Z,38.37
2019-01-21T05:46:58.359Z,40.10
2019-01-21T05:50:13.513Z,39.70
2019-01-21T05:53:38.956Z,38.10
2019-01-21T05:56:48.623Z,37.47
2019-01-21T05:59:53.949Z,39.30
2019-01-21T06:03:12.191Z,39.57
2019-01-21T06:06:28.276Z,36.10
2019-01-21T06:09:33.345Z,39.13
2019-01-21T06:12:36.947Z,39.40
2019-01-21T06:15:53.141Z,42.60
2019-01-21T06:18:39.984Z,39.87
2019-01-21T06:21:40.602Z,40.23
2019-01-21T06:24:38.415Z,39.00
2019-01-21T06:28:00.559Z,41.07
2019-01-21T06:31:22.640Z,40.97
2019-01-21T06:34:34.852Z,38.07
2019-01-21T06:38:04.018Z,37.97
2019-01-21T06:41:06.919Z,38.97
2019-01-21T06:44:23.451Z,41.27
2019-01-21T06:47:19.647Z,40.10
2019-01-21T06:50:46.408Z,39.13
2019-01-21T06:53:58.987Z,38.80
2019-01-21T06:57:07.723Z,39.77
2019-01-21T07:00:13.391Z,39.47
2019-01-21T07:03:37.539Z,39.97
2019-01-21T07:06:34.952Z,41.47
2019-01-21T07:09:43.515Z,41.10
2019-01-21T07:12:53.168Z,39.03
2019-01-21T07:15:50.318Z,37.97
2019-01-21T07:18:56.403Z,42.30
2019-01-21T07:22:15.540Z,40.77
2019-01-21T07:25:10.768Z,39.60
2019-01-21T07:28:23.571Z,39.57
2019-01-21T07:31:17.381Z,40.00
2019-01-21T07:34:33.744Z,41.97
2019-01-21T07:37:44.127Z,42.60
2019-01-21T07:40:56.027Z,42.87
2019-01-21T07:44:21.207Z,41.07
2019-01-21T07:47:26.059Z,42.70
2019-01-21T07:50:17.523Z,40.10
2019-01-21T07:53:29.763Z,40.87
2019-01-21T07:56:46.019Z,42.73
2019-01-21T07:59:44.967Z,42.97
2019-01-21T08:02:29.994Z,40.53
2019-01-21T08:05:42.323Z,41.50
2019-01-21T08:08:54.026Z,42.83
2019-01-21T08:12:13.395Z,41.93
2019-01-21T08:15:38.861Z,43.83
2019-01-21T08:18:48.071Z,44.27
2019-01-21T08:21:49.175Z,50.03
2019-01-21T08:24:54.356Z,41.53
2019-01-21T08:28:17.266Z,38.43
2019-01-21T08:31:27.785Z,39.33
2019-01-21T08:34:44.105Z,40.60
2019-01-21T08:37:55.236Z,43.97
2019-01-21T08:41:11.548Z,48.30
2019-01-21T08:44:30.631Z,42.20
2019-01-21T08:47:28.999Z,42.83
2019-01-21T08:50:43.679Z,42.73
2019-01-21T08:53:40.228Z,41.53
2019-01-21T08:56:50.527Z,39.67
2019-01-21T09:00:03.911Z,39.10
2019-01-21T09:03:17.117Z,41.37
2019-01-21T09:06:30.203Z,43.63
2019-01-21T09:09:33.404Z,39.60
2019-01-21T09:12:44.091Z,38.57
2019-01-21T09:15:47.145Z,41.77
2019-01-21T09:18:57.195Z,39.50
2019-01-21T09:21:57.675Z,39.00
2019-01-21T09:24:49.728Z,40.37
2019-01-21T09:27:40.808Z,41.67
2019-01-21T09:30:44.520Z,41.13
2019-01-21T09:33:49.991Z,43.73
2019-01-21T09:36:29.184Z,40.57
2019-01-21T09:39:13.522Z,41.47
2019-01-21T09:42:37.335Z,42.47
2019-01-21T09:45:50.718Z,41.60
2019-01-21T09:48:18.830Z,44.70
2019-01-21T09:50:49.213Z,41.97
2019-01-21T09:53:18.656Z,42.03
2019-01-21T09:55:50.481Z,42.50
2019-01-21T09:58:23.695Z,43.30
2019-01-21T10:00:53.210Z,40.93
2019-01-21T10:03:23.301Z,40.67
2019-01-21T10:05:58.204Z,42.00
2019-01-21T10:08:39.610Z,42.33
2019-01-21T10:11:36.061Z,39.27
2019-01-21T10:14:35.174Z,42.47
2019-01-21T10:17:17.809Z,39.37
2019-01-21T10:20:18.537Z,45.87
2019-01-21T10:23:42.587Z,47.87
2019-01-21T10:27:08.167Z,40.47
2019-01-21T10:30:30.844Z,43.13
2019-01-21T10:33:32.682Z,38.23
2019-01-21T10:36:41.997Z,40.67
2019-01-21T10:39:58.140Z,40.83
2019-01-21T10:43:09.007Z,38.90
2019-01-21T10:46:19.745Z,42.50
2019-01-21T10:49:22.271Z,39.33
2019-01-21T10:52:23.388Z,39.03
2019-01-21T10:55:08.399Z,40.60
2019-01-21T10:57:58.751Z,43.33
2019-01-21T11:01:15.251Z,40.57
2019-01-21T11:04:08.563Z,43.33
2019-01-21T11:07:42.659Z,45.83
2019-01-21T11:10:20.775Z,40.87
2019-01-21T11:13:00.187Z,40.27
2019-01-21T11:15:34.967Z,40.60
2019-01-21T11:18:31.795Z,44.07
2019-01-21T11:21:49.873Z,41.43
2019-01-21T11:24:58.064Z,40.57
2019-01-21T11:28:09.999Z,43.00
2019-01-21T11:31:03.690Z,41.93
2019-01-21T11:34:03.259Z,42.50
2019-01-21T11:37:24.284Z,41.47
2019-01-21T11:40:43.507Z,40.73
2019-01-21T11:43:47.190Z,41.27
2019-01-21T11:46:48.872Z,40.57
2019-01-21T11:49:46.316Z,40.93
2019-01-21T11:52:49.368Z,43.70
2019-01-21T11:55:51.216Z,42.20
2019-01-21T11:58:58.983Z,38.33
2019-01-21T12:02:15.012Z,43.60
2019-01-21T12:05:12.332Z,39.87
2019-01-21T12:08:16.400Z,41.90
2019-01-21T12:11:12.363Z,42.20
2019-01-21T12:14:08.250Z,40.90
2019-01-21T12:17:05.921Z,40.83
2019-01-21T12:20:06.823Z,41.00
2019-01-21T12:23:06.476Z,40.53
2019-01-21T12:25:45.384Z,39.83
2019-01-21T12:28:52.499Z,41.80
2019-01-21T12:31:49.825Z,42.87
2019-01-21T12:34:43.309Z,41.67
2019-01-21T12:37:25.034Z,43.57
2019-01-21T12:40:39.351Z,40.63
2019-01-21T12:43:46.447Z,41.80
2019-01-21T12:46:28.111Z,41.63
2019-01-21T12:49:14.508Z,40.43
2019-01-21T12:52:20.896Z,41.73
2019-01-21T12:55:31.124Z,41.10
2019-01-21T12:58:43.410Z,42.17
2019-01-21T13:01:21.959Z,40.07
2019-01-21T13:04:31.676Z,40.33
2019-01-21T13:07:32.264Z,43.07
2019-01-21T13:10:47.654Z,38.53
2019-01-21T13:13:52.752Z,41.23
2019-01-21T13:16:55.471Z,41.60
2019-01-21T13:20:09.443Z,42.10
2019-01-21T13:22:51.566Z,40.60
2019-01-21T13:25:53.425Z,39.67
2019-01-21T13:29:03.796Z,40.47
2019-01-21T13:31:56.567Z,41.70
2019-01-21T13:35:01.012Z,38.43
2019-01-21T13:37:52.122Z,39.90
2019-01-21T13:41:23.599Z,39.97
2019-01-21T13:44:37.484Z,49.67
2019-01-21T13:47:44.075Z,39.33
2019-01-21T13:50:50.278Z,41.23
2019-01-21T13:54:18.523Z,39.77
2019-01-21T13:57:14.971Z,38.30
2019-01-21T14:00:27.002Z,37.93
2019-01-21T14:03:32.919Z,38.87
2019-01-21T14:06:58.424Z,40.83
2019-01-21T14:10:08.908Z,37.50
2019-01-21T14:13:19.532Z,48.60
2019-01-21T14:16:21.044Z,47.57
2019-01-21T14:19:02.362Z,37.73
2019-01-21T14:22:20.555Z,41.10
2019-01-21T14:25:42.748Z,48.03
2019-01-21T14:28:38.591Z,38.40
2019-01-21T14:32:07.588Z,41.73
2019-01-21T14:35:25.732Z,38.67
2019-01-21T14:38:35.358Z,41.00
2019-01-21T14:41:17.595Z,37.90
2019-01-21T14:44:41.764Z,40.63
2019-01-21T14:47:54.730Z,39.93
2019-01-21T14:51:02.318Z,41.47
2019-01-21T14:54:27.561Z,38.27
2019-01-21T14:57:40.395Z,37.00
2019-01-21T15:00:31.800Z,39.80
2019-01-21T15:03:30.478Z,42.43
2019-01-21T15:06:15.887Z,41.27
2019-01-21T15:08:58.456Z,41.43
2019-01-21T15:11:52.686Z,38.40
2019-01-21T15:15:12.019Z,38.60
2019-01-21T15:18:31.803Z,36.97
2019-01-21T15:21:06.787Z,41.07
2019-01-21T15:24:10.136Z,40.20
2019-01-21T15:27:04.478Z,38.57
2019-01-21T15:29:59.017Z,42.63
2019-01-21T15:32:42.083Z,44.50
2019-01-21T15:35:38.529Z,39.93
2019-01-21T15:39:15.730Z,40.80
2019-01-21T15:41:53.644Z,42.73
2019-01-21T15:45:14.925Z,48.13
2019-01-21T15:48:17.824Z,41.90
2019-01-21T15:51:26.683Z,42.17
2019-01-21T15:54:16.998Z,40.80
2019-01-21T15:57:14.088Z,41.53
2019-01-21T16:00:23.039Z,41.03
2019-01-21T16:03:24.680Z,41.13
2019-01-21T16:06:31.989Z,52.67
2019-01-21T16:09:48.254Z,46.87
2019-01-21T16:12:48.112Z,46.63
2019-01-21T16:15:58.714Z,44.60
2019-01-21T16:18:34.883Z,43.50
2019-01-21T16:21:43.903Z,44.90
2019-01-21T16:24:26.402Z,45.43
2019-01-21T16:27:08.245Z,44.27
2019-01-21T16:30:01.319Z,43.73
2019-01-21T16:33:22.695Z,43.50
2019-01-21T16:36:36.695Z,44.30
2019-01-21T16:39:39.059Z,45.20
2019-01-21T16:42:14.209Z,46.93
2019-01-21T16:44:45.449Z,49.27
2019-01-21T16:47:14.859Z,47.37
2019-01-21T16:49:44.295Z,47.10
2019-01-21T16:52:13.784Z,45.53
2019-01-21T16:54:43.201Z,44.23
2019-01-21T16:57:12.596Z,45.63
2019-01-21T16:59:41.988Z,45.47
2019-01-21T17:02:11.654Z,42.87
2019-01-21T17:04:41.041Z,43.13
2019-01-21T17:07:10.466Z,42.73
2019-01-21T17:09:39.848Z,42.33
2019-01-21T17:12:09.467Z,43.50
2019-01-21T17:14:38.876Z,42.90
2019-01-21T17:17:08.260Z,43.53
2019-01-21T17:19:37.663Z,45.67
2019-01-21T17:22:06.972Z,44.70
2019-01-21T17:24:36.377Z,44.93
2019-01-21T17:27:06.132Z,42.80
2019-01-21T17:29:35.576Z,47.03
2019-01-21T17:32:05.156Z,45.97
2019-01-21T17:34:34.547Z,43.10
2019-01-21T17:37:03.968Z,41.90
2019-01-21T17:39:33.367Z,44.90
2019-01-21T17:42:02.783Z,46.23
2019-01-21T17:44:32.207Z,46.83
2019-01-21T17:47:01.631Z,49.30
2019-01-21T17:49:31.028Z,50.70
2019-01-21T17:52:00.433Z,50.83
2019-01-21T17:54:34.803Z,50.93
2019-01-21T17:57:00.896Z,48.73
2019-01-21T17:59:30.328Z,49.70
2019-01-21T18:01:59.725Z,49.07
2019-01-21T18:04:29.140Z,45.20
2019-01-21T18:06:58.528Z,43.77
2019-01-21T18:09:27.945Z,51.00
2019-01-21T18:11:57.336Z,54.47
2019-01-21T18:14:26.717Z,51.53
2019-01-21T18:16:56.136Z,50.47
2019-01-21T18:19:25.540Z,55.37
2019-01-21T18:21:54.961Z,52.23
2019-01-21T18:24:24.347Z,50.10
2019-01-21T18:26:53.796Z,48.67
2019-01-21T18:29:24.321Z,49.67
2019-01-21T18:31:53.664Z,47.97
2019-01-21T18:34:23.078Z,48.57
2019-01-21T18:36:52.555Z,46.87
2019-01-21T18:39:21.983Z,51.53
2019-01-21T18:41:51.384Z,56.27
2019-01-21T18:44:20.852Z,57.27
2019-01-21T18:46:50.243Z,58.17
2019-01-21T18:49:22.942Z,56.53
2019-01-21T18:51:50.692Z,54.73
2019-01-21T18:54:20.100Z,56.53
2019-01-21T18:56:49.555Z,60.60
2019-01-21T18:59:18.988Z,58.40
2019-01-21T19:01:48.388Z,64.07
2019-01-21T19:04:17.769Z,61.13
2019-01-21T19:06:47.162Z,62.80
2019-01-21T19:09:16.535Z,59.87
2019-01-21T19:11:45.889Z,56.27
2019-01-21T19:14:15.279Z,54.40
2019-01-21T19:16:45.031Z,49.07
2019-01-21T19:19:14.431Z,48.60
2019-01-21T19:21:43.800Z,47.80
2019-01-21T19:24:13.225Z,51.53
2019-01-21T19:26:42.615Z,51.37
2019-01-21T19:29:12.042Z,47.43
2019-01-21T19:31:41.422Z,73.63
2019-01-21T19:34:10.841Z,101.70
2019-01-21T19:36:40.231Z,52.53
2019-01-21T19:39:10.152Z,47.83
2019-01-21T19:41:39.548Z,47.93
2019-01-21T19:44:08.996Z,55.23
2019-01-21T19:46:44.102Z,50.67
2019-01-21T19:49:09.512Z,47.90
2019-01-21T19:51:38.930Z,48.23
2019-01-21T19:54:08.256Z,48.93
2019-01-21T19:56:37.680Z,55.50
2019-01-21T19:59:07.127Z,46.93
2019-01-21T20:01:36.547Z,48.17
2019-01-21T20:04:06.007Z,48.57
2019-01-21T20:06:35.511Z,47.87
2019-01-21T20:09:07.102Z,46.77
2019-01-21T20:11:36.488Z,45.00
2019-01-21T20:14:06.126Z,42.77
2019-01-21T20:16:35.524Z,44.93
2019-01-21T20:19:04.951Z,44.50
2019-01-21T20:21:34.344Z,44.50
2019-01-21T20:24:03.963Z,45.50
2019-01-21T20:26:33.349Z,43.77
2019-01-21T20:29:02.796Z,44.57
2019-01-21T20:31:32.192Z,48.73
2019-01-21T20:34:01.674Z,38.93
2019-01-21T20:36:31.107Z,42.33
2019-01-21T20:39:00.503Z,39.40
2019-01-21T20:41:29.916Z,39.90
2019-01-21T20:43:59.331Z,37.10
2019-01-21T20:46:28.768Z,58.33
2019-01-21T20:51:34.205Z,37.53
2019-01-21T20:54:03.611Z,37.10
2019-01-21T20:56:33.031Z,39.70
2019-01-21T20:59:02.443Z,36.93
2019-01-21T21:01:31.841Z,41.40
2019-01-21T21:04:01.240Z,36.30
2019-01-21T21:06:30.686Z,38.90
2019-01-21T21:09:00.157Z,39.53
2019-01-21T21:11:29.585Z,40.13
2019-01-21T21:13:59.073Z,59.70
2019-01-21T21:16:28.500Z,41.23
2019-01-21T21:18:57.948Z,57.77
2019-01-21T21:21:27.412Z,40.57
2019-01-21T21:23:56.939Z,40.93
2019-01-21T21:26:26.416Z,37.60
2019-01-21T21:28:55.854Z,36.10
2019-01-21T21:31:25.379Z,39.50
2019-01-21T21:33:54.830Z,38.67
2019-01-21T21:36:24.264Z,41.57
2019-01-21T21:38:53.717Z,39.37
2019-01-21T21:41:23.162Z,37.23
2019-01-21T21:43:52.652Z,39.80
2019-01-21T21:46:22.113Z,41.43
2019-01-21T21:48:51.559Z,43.37
2019-01-21T21:51:21.052Z,36.23
2019-01-21T21:53:50.523Z,35.67
2019-01-21T21:56:19.954Z,34.27
2019-01-21T21:58:49.503Z,34.60
2019-01-21T22:01:23.921Z,36.37
2019-01-21T22:03:50.018Z,35.47
2019-01-21T22:06:19.487Z,33.30
2019-01-21T22:08:48.920Z,35.27
2019-01-21T22:11:18.429Z,32.80
2019-01-21T22:13:47.824Z,32.87
2019-01-21T22:16:17.375Z,33.07
2019-01-21T22:18:46.823Z,32.50
2019-01-21T22:21:16.267Z,31.33
2019-01-21T22:23:45.725Z,32.57
2019-01-21T22:26:15.115Z,33.13
2019-01-21T22:28:45.067Z,33.37
2019-01-21T22:31:14.471Z,31.93
2019-01-21T22:33:43.871Z,29.23
2019-01-21T22:36:13.291Z,29.60
2019-01-21T22:38:42.693Z,30.07
2019-01-21T22:41:12.391Z,30.87
2019-01-21T22:43:41.800Z,29.10
2019-01-21T22:46:11.549Z,31.67
2019-01-21T22:48:40.968Z,30.43
2019-01-21T22:51:10.429Z,30.43
2019-01-21T22:53:40.084Z,29.90
2019-01-21T22:56:09.476Z,33.40
2019-01-21T22:58:38.887Z,32.07
2019-01-21T23:01:33.947Z,33.70
2019-01-21T23:04:03.364Z,33.03
2019-01-21T23:06:32.767Z,29.07
2019-01-21T23:09:02.175Z,35.90
2019-01-21T23:11:31.567Z,50.67
2019-01-21T23:14:01.363Z,34.60
2019-01-21T23:16:30.769Z,35.90
2019-01-21T23:19:00.155Z,32.23
2019-01-21T23:21:29.551Z,32.83
2019-01-21T23:23:59.060Z,32.43
2019-01-21T23:26:28.480Z,32.77
2019-01-21T23:28:57.882Z,33.87
2019-01-21T23:31:27.542Z,30.17
2019-01-21T23:33:56.912Z,29.73
2019-01-21T23:36:26.415Z,32.30
2019-01-21T23:38:55.824Z,30.37
2019-01-21T23:41:25.218Z,28.80
2019-01-21T23:43:54.643Z,26.90
2019-01-21T23:46:24.027Z,28.57
2019-01-21T23:48:53.491Z,27.80
2019-01-21T23:51:22.950Z,32.00
2019-01-21T23:53:52.411Z,37.00
2019-01-21T23:56:21.814Z,31.00
2019-01-21T23:58:51.512Z,29.20
